Time;durP1;ratioP1;P1;durP2;ratioP2;P2;SDS_P1;SDS_P2;PMS_P1;PMS_P2;Temp;Humidity;BMP_temperature;BMP_pressure;BME280_temperature;BME280_humidity;BME280_pressure;Samples;Min_cycle;Max_cycle;Signal;HPM_P1;HPM_P2
2022/06/16 00:00:10;;;;;;;5.65;3.83;;;;;;;;;;5066404;28;20450;-77
2022/06/16 00:02:40;;;;;;;5.68;3.75;;;;;;;;;;5072127;28;20024;-77
2022/06/16 00:05:06;;;;;;;5.13;3.42;;;;;;;;;;5068177;28;20020;-77
2022/06/16 00:07:32;;;;;;;5.70;4.15;;;;;;;;;;5074907;28;20032;-76
2022/06/16 00:09:59;;;;;;;7.72;4.03;;;;;;;;;;5074432;28;20016;-77
2022/06/16 00:12:25;;;;;;;6.93;3.90;;;;;;;;;;5075293;28;20024;-77
2022/06/16 00:14:51;;;;;;;4.00;3.60;;;;;;;;;;5069389;28;20097;-77
2022/06/16 00:17:17;;;;;;;5.13;3.83;;;;;;;;;;5065112;28;20051;-77
2022/06/16 00:19:43;;;;;;;4.85;3.72;;;;;;;;;;5066308;28;20025;-77
2022/06/16 00:22:09;;;;;;;5.20;3.72;;;;;;;;;;5071188;28;20031;-76
2022/06/16 00:24:35;;;;;;;6.28;4.00;;;;;;;;;;5064660;28;20381;-77
2022/06/16 00:27:01;;;;;;;7.53;3.92;;;;;;;;;;5077009;28;20020;-77
2022/06/16 00:29:28;;;;;;;5.30;4.43;;;;;;;;;;5061028;28;20035;-77
2022/06/16 00:31:54;;;;;;;5.95;4.45;;;;;;;;;;5068977;28;20375;-76
2022/06/16 00:34:20;;;;;;;6.45;4.00;;;;;;;;;;5072308;28;20460;-77
2022/06/16 00:36:46;;;;;;;4.63;4.03;;;;;;;;;;5068510;28;20453;-77
2022/06/16 00:39:12;;;;;;;6.68;4.50;;;;;;;;;;5060538;28;20139;-77
2022/06/16 00:41:39;;;;;;;4.68;3.90;;;;;;;;;;5067125;28;20386;-76
2022/06/16 00:44:25;;;;;;;5.68;3.95;;;;;;;;;;5065602;28;20124;-77
2022/06/16 00:46:51;;;;;;;6.53;3.70;;;;;;;;;;5065333;28;20067;-77
2022/06/16 00:49:17;;;;;;;6.18;4.22;;;;;;;;;;5067365;28;20032;-76
2022/06/16 00:51:43;;;;;;;6.25;4.05;;;;;;;;;;5077114;28;20024;-77
2022/06/16 00:54:16;;;;;;;4.68;3.65;;;;;;;;;;5069700;28;20542;-77
2022/06/16 00:56:42;;;;;;;6.18;3.63;;;;;;;;;;5066426;28;20107;-77
2022/06/16 00:59:08;;;;;;;4.18;3.60;;;;;;;;;;5068810;28;20050;-77
2022/06/16 01:01:35;;;;;;;4.07;3.40;;;;;;;;;;5071295;28;20017;-76
2022/06/16 01:06:46;;;;;;;4.32;3.75;;;;;;;;;;5070841;28;20027;-77
2022/06/16 01:09:15;;;;;;;5.32;3.63;;;;;;;;;;5068084;28;20112;-77
2022/06/16 01:14:50;;;;;;;4.18;3.40;;;;;;;;;;5070462;28;20540;-76
2022/06/16 01:17:36;;;;;;;3.92;3.17;;;;;;;;;;5076706;28;20028;-76
2022/06/16 01:20:19;;;;;;;5.13;3.72;;;;;;;;;;5037232;28;20105;-76
2022/06/16 01:23:02;;;;;;;4.95;4.18;;;;;;;;;;5068269;28;20478;-76
2022/06/16 01:25:37;;;;;;;4.55;3.33;;;;;;;;;;5066788;28;20024;-77
2022/06/16 01:28:07;;;;;;;5.18;3.75;;;;;;;;;;5072855;28;20032;-76
2022/06/16 01:30:37;;;;;;;4.82;3.60;;;;;;;;;;5069354;28;20020;-77
2022/06/16 01:33:08;;;;;;;6.22;3.75;;;;;;;;;;5063934;28;20032;-76
2022/06/16 01:35:48;;;;;;;4.75;3.50;;;;;;;;;;5066842;28;20039;-76
2022/06/16 01:38:31;;;;;;;7.10;4.20;;;;;;;;;;5067128;28;20032;-77
2022/06/16 01:41:29;;;;;;;9.35;4.30;;;;;;;;;;5075112;28;20028;-76
2022/06/16 01:43:59;;;;;;;4.78;3.65;;;;;;;;;;5022971;28;20063;-77
2022/06/16 01:46:27;;;;;;;5.13;4.07;;;;;;;;;;5069868;28;20432;-78
2022/06/16 01:49:06;;;;;;;5.43;4.10;;;;;;;;;;5074567;28;20025;-77
2022/06/16 01:51:35;;;;;;;6.13;4.10;;;;;;;;;;5064928;28;20414;-76
2022/06/16 01:54:04;;;;;;;4.32;3.92;;;;;;;;;;5066999;28;20016;-77
2022/06/16 01:56:40;;;;;;;6.20;3.80;;;;;;;;;;5072521;28;20021;-77
2022/06/16 01:59:13;;;;;;;5.65;4.00;;;;;;;;;;5069293;28;20028;-78
2022/06/16 02:01:41;;;;;;;5.82;4.25;;;;;;;;;;5062415;28;20029;-76
2022/06/16 02:04:19;;;;;;;6.40;4.03;;;;;;;;;;5056811;28;20117;-77
2022/06/16 02:06:48;;;;;;;7.13;4.20;;;;;;;;;;5079027;28;20062;-77
2022/06/16 02:09:21;;;;;;;6.40;4.07;;;;;;;;;;5070689;28;20037;-76
2022/06/16 02:11:47;;;;;;;5.93;4.03;;;;;;;;;;5061951;28;20441;-77
2022/06/16 02:14:36;;;;;;;5.75;3.92;;;;;;;;;;5064600;28;20429;-77
2022/06/16 02:17:03;;;;;;;7.68;4.75;;;;;;;;;;5060337;28;20275;-77
2022/06/16 02:19:29;;;;;;;4.47;3.72;;;;;;;;;;5065125;28;20555;-77
2022/06/16 02:21:56;;;;;;;5.53;4.00;;;;;;;;;;5067732;28;20394;-77
2022/06/16 02:24:23;;;;;;;6.43;4.00;;;;;;;;;;5079545;28;20027;-77
2022/06/16 02:26:51;;;;;;;5.53;4.05;;;;;;;;;;5071514;28;20103;-76
2022/06/16 02:29:19;;;;;;;5.18;3.70;;;;;;;;;;5069843;28;20424;-78
2022/06/16 02:31:46;;;;;;;5.75;3.65;;;;;;;;;;5070353;28;20025;-77
2022/06/16 02:34:34;;;;;;;8.75;3.92;;;;;;;;;;5079870;28;20051;-77
2022/06/16 02:37:03;;;;;;;5.68;3.67;;;;;;;;;;5064816;28;20110;-76
2022/06/16 02:39:41;;;;;;;7.22;3.70;;;;;;;;;;5065855;28;20056;-78
2022/06/16 02:42:26;;;;;;;4.55;3.42;;;;;;;;;;5073601;28;20165;-77
2022/06/16 02:45:01;;;;;;;3.80;3.40;;;;;;;;;;5066935;28;20154;-77
2022/06/16 02:47:47;;;;;;;5.15;3.65;;;;;;;;;;5064110;28;20032;-77
2022/06/16 02:50:25;;;;;;;5.22;4.03;;;;;;;;;;5061686;28;20020;-77
2022/06/16 02:52:57;;;;;;;6.65;3.70;;;;;;;;;;5068561;28;20059;-76
2022/06/16 02:55:30;;;;;;;7.47;3.92;;;;;;;;;;5075031;28;20040;-77
2022/06/16 02:57:58;;;;;;;6.13;4.00;;;;;;;;;;5061556;28;20020;-76
2022/06/16 03:00:28;;;;;;;5.03;3.72;;;;;;;;;;5067414;28;20019;-76
2022/06/16 03:02:54;;;;;;;4.55;3.42;;;;;;;;;;5067178;28;20024;-77
2022/06/16 03:05:20;;;;;;;5.05;3.70;;;;;;;;;;5080284;28;20047;-76
2022/06/16 03:07:47;;;;;;;4.43;3.70;;;;;;;;;;5064407;28;20494;-76
2022/06/16 03:10:50;;;;;;;6.18;3.55;;;;;;;;;;5065672;28;20043;-78
2022/06/16 03:13:00;;;;;;;4.80;3.55;;;;;;;;;;5061209;28;20417;-76
2022/06/16 03:15:26;;;;;;;7.30;3.85;;;;;;;;;;5068014;28;20052;-77
2022/06/16 03:17:53;;;;;;;5.28;3.65;;;;;;;;;;5069000;28;20056;-77
2022/06/16 03:20:19;;;;;;;7.15;3.60;;;;;;;;;;5071760;28;20544;-76
2022/06/16 03:22:45;;;;;;;7.13;4.47;;;;;;;;;;5075329;28;20439;-77
2022/06/16 03:25:12;;;;;;;5.93;3.70;;;;;;;;;;5073113;28;20021;-77
2022/06/16 03:27:38;;;;;;;7.32;4.45;;;;;;;;;;5069343;28;20248;-77
2022/06/16 03:30:04;;;;;;;4.60;4.10;;;;;;;;;;5085492;28;20024;-76
2022/06/16 03:32:30;;;;;;;6.25;4.15;;;;;;;;;;5070953;28;20517;-76
2022/06/16 03:34:56;;;;;;;5.85;3.92;;;;;;;;;;5066225;28;20099;-76
2022/06/16 03:37:24;;;;;;;7.00;3.78;;;;;;;;;;5067291;28;20032;-77
2022/06/16 03:39:50;;;;;;;5.93;3.60;;;;;;;;;;5065525;28;20021;-76
2022/06/16 03:42:16;;;;;;;5.93;4.40;;;;;;;;;;5070129;28;20020;-77
2022/06/16 03:44:42;;;;;;;6.38;3.60;;;;;;;;;;5069556;28;20031;-77
2022/06/16 03:47:09;;;;;;;6.10;4.80;;;;;;;;;;5064904;28;20588;-78
2022/06/16 03:49:35;;;;;;;6.65;3.97;;;;;;;;;;5067963;28;20067;-77
2022/06/16 03:52:01;;;;;;;5.72;3.95;;;;;;;;;;5064909;28;20556;-76
2022/06/16 03:54:27;;;;;;;6.05;4.40;;;;;;;;;;5063384;28;20057;-77
2022/06/16 03:56:53;;;;;;;5.88;3.90;;;;;;;;;;5068342;28;20036;-76
2022/06/16 03:59:21;;;;;;;5.97;3.70;;;;;;;;;;5070232;28;20031;-77
2022/06/16 04:01:47;;;;;;;5.65;4.32;;;;;;;;;;5068623;28;20069;-76
2022/06/16 04:04:14;;;;;;;6.05;4.45;;;;;;;;;;5066324;28;20021;-76
2022/06/16 04:06:40;;;;;;;6.38;4.70;;;;;;;;;;5065249;28;20070;-77
2022/06/16 04:09:06;;;;;;;5.90;4.38;;;;;;;;;;5082151;28;20024;-76
2022/06/16 04:11:32;;;;;;;5.30;4.45;;;;;;;;;;5063171;28;20033;-76
2022/06/16 04:14:04;;;;;;;8.82;5.47;;;;;;;;;;5063046;28;20028;-76
2022/06/16 04:16:32;;;;;;;5.97;4.57;;;;;;;;;;5064064;28;20090;-76
2022/06/16 04:18:58;;;;;;;5.80;4.50;;;;;;;;;;5077634;28;20012;-76
2022/06/16 04:21:24;;;;;;;6.78;4.88;;;;;;;;;;5062217;28;20021;-77
2022/06/16 04:23:50;;;;;;;8.82;4.28;;;;;;;;;;5061144;28;20012;-76
2022/06/16 04:26:17;;;;;;;5.70;4.65;;;;;;;;;;5061153;28;20058;-77
2022/06/16 04:28:43;;;;;;;5.30;4.40;;;;;;;;;;5069206;28;20078;-76
2022/06/16 04:31:09;;;;;;;7.93;4.32;;;;;;;;;;5068042;28;20032;-76
2022/06/16 04:33:35;;;;;;;8.30;4.57;;;;;;;;;;5059371;28;20044;-76
2022/06/16 04:36:02;;;;;;;7.13;5.03;;;;;;;;;;5066448;28;20021;-76
2022/06/16 04:38:28;;;;;;;6.65;4.40;;;;;;;;;;5066396;28;20368;-76
2022/06/16 04:40:54;;;;;;;5.15;4.65;;;;;;;;;;5066545;28;20479;-76
2022/06/16 04:43:21;;;;;;;7.28;4.95;;;;;;;;;;5070143;28;20046;-76
2022/06/16 04:45:47;;;;;;;6.25;4.68;;;;;;;;;;5067198;28;20032;-77
2022/06/16 04:48:13;;;;;;;9.25;4.45;;;;;;;;;;5068926;28;20163;-77
2022/06/16 04:50:39;;;;;;;6.55;4.30;;;;;;;;;;5070557;28;20028;-77
2022/06/16 04:53:05;;;;;;;5.88;4.18;;;;;;;;;;5067710;28;20039;-77
2022/06/16 04:55:31;;;;;;;9.85;4.88;;;;;;;;;;5067048;28;20390;-76
2022/06/16 04:57:58;;;;;;;6.13;4.38;;;;;;;;;;5070574;28;20514;-76
2022/06/16 05:00:24;;;;;;;5.43;4.90;;;;;;;;;;5063011;28;20093;-76
2022/06/16 05:02:50;;;;;;;5.68;4.68;;;;;;;;;;5060637;28;20017;-75
2022/06/16 05:05:16;;;;;;;4.95;4.43;;;;;;;;;;5064566;28;20032;-76
2022/06/16 05:07:42;;;;;;;6.93;4.50;;;;;;;;;;5063194;28;20038;-76
2022/06/16 05:10:09;;;;;;;6.47;4.20;;;;;;;;;;5059441;28;20044;-76
2022/06/16 05:12:35;;;;;;;7.45;4.30;;;;;;;;;;5063944;28;20024;-76
2022/06/16 05:15:01;;;;;;;5.20;4.28;;;;;;;;;;5070895;28;20054;-76
2022/06/16 05:17:27;;;;;;;9.95;4.10;;;;;;;;;;5073344;28;20501;-77
2022/06/16 05:19:53;;;;;;;5.10;4.15;;;;;;;;;;5069020;28;20740;-76
2022/06/16 05:22:19;;;;;;;5.97;4.05;;;;;;;;;;5062074;28;20552;-76
2022/06/16 05:24:45;;;;;;;4.90;4.30;;;;;;;;;;5062235;28;20020;-77
2022/06/16 05:27:11;;;;;;;5.35;4.43;;;;;;;;;;5068649;28;20382;-76
2022/06/16 05:29:38;;;;;;;4.82;3.80;;;;;;;;;;5064006;28;20028;-76
2022/06/16 05:32:04;;;;;;;5.20;4.20;;;;;;;;;;5066484;28;20035;-76
2022/06/16 05:34:30;;;;;;;5.13;3.75;;;;;;;;;;5068967;28;20725;-78
2022/06/16 05:36:56;;;;;;;5.00;3.85;;;;;;;;;;5065228;28;20048;-77
2022/06/16 05:39:22;;;;;;;5.93;4.00;;;;;;;;;;5071264;28;20089;-77
2022/06/16 05:41:49;;;;;;;4.72;4.05;;;;;;;;;;5065033;28;20016;-77
2022/06/16 05:44:15;;;;;;;7.38;4.57;;;;;;;;;;5061091;28;20024;-77
2022/06/16 05:46:41;;;;;;;3.65;3.35;;;;;;;;;;5067583;28;20074;-78
2022/06/16 05:49:07;;;;;;;4.85;3.67;;;;;;;;;;5065110;28;20364;-77
2022/06/16 05:51:34;;;;;;;5.28;4.05;;;;;;;;;;5073291;28;20076;-77
2022/06/16 05:54:00;;;;;;;7.90;4.05;;;;;;;;;;5064232;28;20127;-77
2022/06/16 05:56:26;;;;;;;6.82;3.60;;;;;;;;;;5063564;28;20505;-77
2022/06/16 05:58:52;;;;;;;4.75;3.38;;;;;;;;;;5064140;28;20036;-77
2022/06/16 06:01:18;;;;;;;8.95;3.60;;;;;;;;;;5072919;28;20025;-78
2022/06/16 06:03:44;;;;;;;5.50;3.50;;;;;;;;;;5065350;28;20018;-76
2022/06/16 06:06:10;;;;;;;6.10;3.42;;;;;;;;;;5073294;28;20300;-76
2022/06/16 06:16:56;;;;;;;4.60;3.17;;;;;;;;;;5068254;28;20086;-77
2022/06/16 06:19:31;;;;;;;4.07;3.30;;;;;;;;;;5071644;28;20025;-77
2022/06/16 06:22:03;;;;;;;3.95;3.00;;;;;;;;;;5069050;28;20017;-76
2022/06/16 06:24:45;;;;;;;3.88;3.10;;;;;;;;;;5070205;28;20024;-77
2022/06/16 06:27:24;;;;;;;6.47;3.05;;;;;;;;;;5068838;28;20050;-77
2022/06/16 06:29:50;;;;;;;5.68;3.33;;;;;;;;;;5072040;28;20453;-76
2022/06/16 06:32:21;;;;;;;4.85;3.42;;;;;;;;;;5084731;28;20502;-77
2022/06/16 06:34:47;;;;;;;3.30;2.65;;;;;;;;;;5063631;28;20085;-77
2022/06/16 06:37:15;;;;;;;3.72;2.80;;;;;;;;;;5078320;28;20032;-77
2022/06/16 06:39:41;;;;;;;3.78;3.25;;;;;;;;;;5070478;28;20085;-77
2022/06/16 06:42:07;;;;;;;5.03;3.00;;;;;;;;;;5076056;28;20024;-77
2022/06/16 06:44:34;;;;;;;5.32;3.05;;;;;;;;;;5067032;28;20020;-76
2022/06/16 06:47:00;;;;;;;4.50;3.15;;;;;;;;;;5073489;28;20136;-76
2022/06/16 06:49:26;;;;;;;3.47;3.03;;;;;;;;;;5070516;28;20394;-76
2022/06/16 06:51:52;;;;;;;3.90;2.80;;;;;;;;;;5071959;28;20040;-76
2022/06/16 06:54:19;;;;;;;5.47;2.90;;;;;;;;;;5080490;28;20473;-77
2022/06/16 06:56:46;;;;;;;4.35;2.95;;;;;;;;;;5065481;28;21017;-77
2022/06/16 06:59:14;;;;;;;4.63;3.70;;;;;;;;;;5076021;28;20035;-77
2022/06/16 07:01:41;;;;;;;3.65;3.30;;;;;;;;;;5074651;28;20023;-76
2022/06/16 07:04:07;;;;;;;4.68;2.85;;;;;;;;;;5070407;28;20029;-76
2022/06/16 07:06:34;;;;;;;3.13;2.63;;;;;;;;;;5066169;28;20178;-77
2022/06/16 07:09:00;;;;;;;3.88;3.47;;;;;;;;;;5066777;28;20514;-76
2022/06/16 07:11:26;;;;;;;4.47;3.53;;;;;;;;;;5068684;28;20033;-77
2022/06/16 07:13:52;;;;;;;5.95;2.95;;;;;;;;;;5069981;28;20025;-78
2022/06/16 07:16:19;;;;;;;4.70;2.80;;;;;;;;;;5068638;28;20419;-76
2022/06/16 07:18:45;;;;;;;4.45;3.03;;;;;;;;;;5079222;28;20021;-76
2022/06/16 07:21:11;;;;;;;3.38;3.08;;;;;;;;;;5070800;28;20051;-77
2022/06/16 07:23:37;;;;;;;4.90;3.03;;;;;;;;;;5056003;28;20592;-75
2022/06/16 07:26:04;;;;;;;5.68;3.10;;;;;;;;;;5058937;28;20060;-75
2022/06/16 07:28:30;;;;;;;5.18;2.90;;;;;;;;;;5063126;28;20031;-75
2022/06/16 07:30:56;;;;;;;7.00;3.50;;;;;;;;;;5060726;28;20028;-77
2022/06/16 07:33:23;;;;;;;7.47;3.28;;;;;;;;;;5062060;28;20283;-77
2022/06/16 07:35:50;;;;;;;13.50;3.67;;;;;;;;;;5064587;28;20024;-77
2022/06/16 07:38:16;;;;;;;8.00;3.70;;;;;;;;;;5061876;28;20031;-77
2022/06/16 07:40:42;;;;;;;7.03;3.30;;;;;;;;;;5064458;28;20116;-74
2022/06/16 07:43:08;;;;;;;6.85;3.47;;;;;;;;;;5061356;28;20032;-76
2022/06/16 07:45:35;;;;;;;8.98;3.60;;;;;;;;;;5061790;28;20021;-75
2022/06/16 07:48:02;;;;;;;8.25;3.35;;;;;;;;;;5062390;28;20769;-75
2022/06/16 07:50:29;;;;;;;8.63;4.28;;;;;;;;;;5064892;28;20025;-75
2022/06/16 07:52:55;;;;;;;5.68;3.78;;;;;;;;;;5060894;28;20359;-75
2022/06/16 07:55:21;;;;;;;5.25;3.28;;;;;;;;;;5063970;28;20134;-76
2022/06/16 07:57:48;;;;;;;9.65;3.95;;;;;;;;;;5062207;28;20490;-76
2022/06/16 08:00:17;;;;;;;9.40;4.43;;;;;;;;;;5064663;28;20465;-74
2022/06/16 08:02:43;;;;;;;4.85;3.70;;;;;;;;;;5061977;28;20547;-78
2022/06/16 08:05:13;;;;;;;6.85;3.80;;;;;;;;;;5062055;28;20040;-77
2022/06/16 08:07:40;;;;;;;5.55;3.45;;;;;;;;;;5061782;28;20032;-75
2022/06/16 08:10:08;;;;;;;3.80;3.40;;;;;;;;;;5063777;28;20437;-75
2022/06/16 08:12:37;;;;;;;4.15;3.17;;;;;;;;;;5061125;28;20028;-76
2022/06/16 08:15:03;;;;;;;5.75;3.42;;;;;;;;;;5062159;28;20584;-75
2022/06/16 08:17:31;;;;;;;6.97;3.60;;;;;;;;;;5062585;28;20162;-76
2022/06/16 08:19:57;;;;;;;6.00;3.40;;;;;;;;;;5064738;28;20028;-77
2022/06/16 08:22:24;;;;;;;5.85;3.40;;;;;;;;;;5065027;28;20105;-76
2022/06/16 08:24:50;;;;;;;6.70;3.58;;;;;;;;;;5063446;28;20021;-75
2022/06/16 08:27:18;;;;;;;5.88;3.67;;;;;;;;;;5062548;28;20075;-75
2022/06/16 08:29:44;;;;;;;4.43;3.30;;;;;;;;;;5061449;28;20490;-75
2022/06/16 08:32:11;;;;;;;6.25;3.55;;;;;;;;;;5062830;28;21225;-74
2022/06/16 08:34:38;;;;;;;5.20;3.63;;;;;;;;;;5064907;28;20076;-74
2022/06/16 08:37:04;;;;;;;4.95;3.80;;;;;;;;;;5057880;28;20052;-74
2022/06/16 08:39:30;;;;;;;7.60;4.35;;;;;;;;;;5058461;28;20029;-75
2022/06/16 08:41:56;;;;;;;7.35;3.47;;;;;;;;;;5061842;28;20025;-76
2022/06/16 08:44:29;;;;;;;6.25;3.28;;;;;;;;;;5061250;28;20482;-75
2022/06/16 08:47:09;;;;;;;6.25;3.38;;;;;;;;;;5060913;28;20355;-76
2022/06/16 08:49:36;;;;;;;7.60;3.35;;;;;;;;;;5060655;28;20478;-75
2022/06/16 08:52:02;;;;;;;7.28;3.20;;;;;;;;;;5061613;28;20035;-75
2022/06/16 08:54:35;;;;;;;6.85;3.25;;;;;;;;;;5060227;28;20034;-76
2022/06/16 08:57:01;;;;;;;4.80;3.15;;;;;;;;;;5063632;28;20040;-75
2022/06/16 08:59:33;;;;;;;3.55;2.72;;;;;;;;;;5061878;28;20478;-77
2022/06/16 09:01:59;;;;;;;5.50;2.58;;;;;;;;;;5058359;28;20074;-76
2022/06/16 09:04:25;;;;;;;3.90;2.80;;;;;;;;;;5061720;28;20048;-76
2022/06/16 09:07:13;;;;;;;4.57;3.00;;;;;;;;;;5060261;28;20043;-76
2022/06/16 09:10:16;;;;;;;3.65;3.03;;;;;;;;;;5061596;28;20304;-77
2022/06/16 09:13:01;;;;;;;5.78;2.90;;;;;;;;;;5058405;28;20458;-76
2022/06/16 09:15:34;;;;;;;5.28;2.63;;;;;;;;;;5060435;28;20059;-74
2022/06/16 09:18:19;;;;;;;3.58;2.42;;;;;;;;;;5058338;28;20542;-76
2022/06/16 09:20:45;;;;;;;4.10;2.70;;;;;;;;;;5056988;28;20037;-75
2022/06/16 09:23:20;;;;;;;5.60;2.55;;;;;;;;;;5061470;28;20056;-75
2022/06/16 09:25:52;;;;;;;3.20;2.90;;;;;;;;;;5060065;28;20391;-75
2022/06/16 09:28:28;;;;;;;5.82;2.80;;;;;;;;;;5059793;28;20034;-75
2022/06/16 09:30:56;;;;;;;3.33;2.60;;;;;;;;;;5079567;28;20029;-76
2022/06/16 09:33:29;;;;;;;3.50;2.70;;;;;;;;;;5067110;28;20050;-77
2022/06/16 09:35:58;;;;;;;4.38;2.40;;;;;;;;;;5069821;28;20425;-77
2022/06/16 09:38:29;;;;;;;2.95;2.22;;;;;;;;;;5066956;28;20040;-75
2022/06/16 09:41:02;;;;;;;3.58;2.50;;;;;;;;;;5069217;28;20127;-74
2022/06/16 09:43:28;;;;;;;3.10;2.42;;;;;;;;;;5066803;28;20036;-75
2022/06/16 09:45:58;;;;;;;3.75;2.03;;;;;;;;;;5064836;28;20548;-75
2022/06/16 09:48:24;;;;;;;8.27;2.58;;;;;;;;;;5061149;28;20024;-76
2022/06/16 09:50:57;;;;;;;3.97;2.00;;;;;;;;;;5067995;28;20102;-76
2022/06/16 09:53:36;;;;;;;3.55;2.00;;;;;;;;;;5063797;28;20032;-75
2022/06/16 09:56:04;;;;;;;4.30;2.05;;;;;;;;;;5066947;28;20099;-76
2022/06/16 09:58:35;;;;;;;4.57;1.95;;;;;;;;;;5065193;28;20148;-76
2022/06/16 10:01:04;;;;;;;5.35;2.40;;;;;;;;;;5065853;28;20075;-75
2022/06/16 10:03:33;;;;;;;3.50;2.10;;;;;;;;;;5062842;28;20031;-75
2022/06/16 10:06:14;;;;;;;4.65;2.35;;;;;;;;;;5065775;28;20020;-76
2022/06/16 10:08:48;;;;;;;3.75;2.10;;;;;;;;;;5061930;28;20052;-75
2022/06/16 10:11:35;;;;;;;2.72;2.05;;;;;;;;;;5063160;28;20050;-78
2022/06/16 10:14:07;;;;;;;3.95;2.60;;;;;;;;;;5031881;28;20045;-75
2022/06/16 10:16:42;;;;;;;2.40;2.03;;;;;;;;;;5061988;28;20040;-76
2022/06/16 10:19:09;;;;;;;3.15;1.95;;;;;;;;;;5062948;28;20033;-77
2022/06/16 10:21:35;;;;;;;4.45;2.20;;;;;;;;;;5065742;28;20021;-77
2022/06/16 10:24:03;;;;;;;3.75;2.30;;;;;;;;;;5065588;28;20446;-75
2022/06/16 10:26:29;;;;;;;5.97;3.03;;;;;;;;;;5062367;28;20051;-77
2022/06/16 10:29:14;;;;;;;4.72;2.00;;;;;;;;;;5066021;28;20033;-76
2022/06/16 10:31:43;;;;;;;4.47;2.38;;;;;;;;;;5065886;28;20033;-77
2022/06/16 10:34:35;;;;;;;3.35;2.05;;;;;;;;;;5063086;28;20111;-74
2022/06/16 10:37:05;;;;;;;3.58;1.90;;;;;;;;;;5059335;28;20075;-75
2022/06/16 10:39:37;;;;;;;2.70;2.00;;;;;;;;;;5063995;28;20443;-76
2022/06/16 10:42:13;;;;;;;3.17;2.05;;;;;;;;;;5063659;28;20081;-76
2022/06/16 10:44:40;;;;;;;3.45;2.00;;;;;;;;;;5062628;28;20058;-76
2022/06/16 10:47:15;;;;;;;2.47;2.17;;;;;;;;;;5060326;28;20062;-75
2022/06/16 10:49:44;;;;;;;3.90;2.05;;;;;;;;;;5061094;28;20028;-77
2022/06/16 10:52:14;;;;;;;4.80;2.15;;;;;;;;;;5063868;28;20032;-75
2022/06/16 10:54:45;;;;;;;3.60;1.90;;;;;;;;;;5064148;28;20406;-75
2022/06/16 10:57:16;;;;;;;4.15;2.85;;;;;;;;;;5065105;28;20020;-76
2022/06/16 10:59:46;;;;;;;4.88;2.10;;;;;;;;;;5063912;28;20020;-76
2022/06/16 11:02:18;;;;;;;3.80;1.90;;;;;;;;;;5063013;28;20024;-77
2022/06/16 11:04:44;;;;;;;3.40;1.90;;;;;;;;;;5062603;28;20166;-76
2022/06/16 11:07:12;;;;;;;2.67;1.80;;;;;;;;;;5062562;28;20067;-77
2022/06/16 11:09:38;;;;;;;2.42;1.63;;;;;;;;;;5065374;28;20082;-77
2022/06/16 11:12:06;;;;;;;2.17;1.80;;;;;;;;;;5063611;28;20034;-76
2022/06/16 11:14:39;;;;;;;3.13;1.88;;;;;;;;;;5066017;28;20545;-77
2022/06/16 11:17:09;;;;;;;2.38;1.75;;;;;;;;;;5059863;28;20518;-76
2022/06/16 11:19:46;;;;;;;1.67;1.58;;;;;;;;;;5064925;28;20027;-76
2022/06/16 11:22:30;;;;;;;1.88;1.70;;;;;;;;;;5063678;28;20031;-76
2022/06/16 11:25:01;;;;;;;3.75;1.75;;;;;;;;;;5062862;28;20432;-78
2022/06/16 11:27:28;;;;;;;1.73;1.60;;;;;;;;;;5062117;28;20032;-75
2022/06/16 11:29:55;;;;;;;3.95;2.30;;;;;;;;;;5064042;28;20028;-76
2022/06/16 11:32:24;;;;;;;2.22;2.00;;;;;;;;;;5064134;28;20020;-77
2022/06/16 11:34:50;;;;;;;2.63;2.35;;;;;;;;;;5064938;28;20031;-78
2022/06/16 11:37:39;;;;;;;3.53;1.80;;;;;;;;;;5063508;28;20020;-76
2022/06/16 11:40:24;;;;;;;4.03;1.85;;;;;;;;;;5055684;28;20041;-77
2022/06/16 11:43:16;;;;;;;3.38;2.10;;;;;;;;;;5062267;28;20421;-76
2022/06/16 11:45:54;;;;;;;1.85;1.65;;;;;;;;;;5062106;28;20103;-77
2022/06/16 11:48:24;;;;;;;1.85;1.55;;;;;;;;;;5062786;28;20029;-77
2022/06/16 11:51:10;;;;;;;1.90;1.80;;;;;;;;;;5063938;28;20024;-77
2022/06/16 11:53:44;;;;;;;4.55;1.80;;;;;;;;;;5063387;28;20039;-77
2022/06/16 11:56:25;;;;;;;2.78;1.77;;;;;;;;;;5063527;28;20379;-77
2022/06/16 11:59:11;;;;;;;1.60;1.50;;;;;;;;;;5077496;28;20090;-77
2022/06/16 12:01:42;;;;;;;2.15;1.60;;;;;;;;;;5064794;28;20025;-76
2022/06/16 12:04:12;;;;;;;3.03;1.65;;;;;;;;;;5063610;28;20063;-77
2022/06/16 12:06:44;;;;;;;1.80;1.70;;;;;;;;;;5062210;28;20025;-77
2022/06/16 12:09:20;;;;;;;2.15;1.63;;;;;;;;;;5062424;28;20020;-75
2022/06/16 12:12:05;;;;;;;3.80;1.77;;;;;;;;;;5060591;28;20038;-76
2022/06/16 12:14:34;;;;;;;1.90;1.55;;;;;;;;;;5062751;28;20121;-77
2022/06/16 12:17:00;;;;;;;3.25;1.60;;;;;;;;;;5062733;28;20076;-77
2022/06/16 12:19:39;;;;;;;3.05;1.80;;;;;;;;;;5061937;28;20132;-77
2022/06/16 12:43:58;;;;;;;2.80;1.95;;;;;;;;;;5063955;28;20017;-78
2022/06/16 12:46:42;;;;;;;2.00;1.85;;;;;;;;;;5059728;28;20121;-78
2022/06/16 12:49:15;;;;;;;2.88;1.80;;;;;;;;;;5064453;28;20075;-77
2022/06/16 12:51:48;;;;;;;1.88;1.67;;;;;;;;;;5064654;28;20028;-76
2022/06/16 12:54:18;;;;;;;3.80;1.70;;;;;;;;;;5062456;28;20028;-77
2022/06/16 12:56:47;;;;;;;1.83;1.60;;;;;;;;;;5063394;28;20025;-77
2022/06/16 12:59:16;;;;;;;2.67;1.60;;;;;;;;;;5078301;28;20094;-76
2022/06/16 13:01:44;;;;;;;5.00;2.78;;;;;;;;;;5062880;28;20095;-77
2022/06/16 13:04:29;;;;;;;5.15;1.90;;;;;;;;;;5065953;28;20563;-75
2022/06/16 13:06:57;;;;;;;2.00;1.60;;;;;;;;;;5063307;28;20027;-75
2022/06/16 13:09:23;;;;;;;1.70;1.60;;;;;;;;;;5063111;28;20111;-76
2022/06/16 13:12:01;;;;;;;2.03;1.63;;;;;;;;;;5062182;28;20033;-76
2022/06/16 13:14:40;;;;;;;1.85;1.70;;;;;;;;;;5061588;28;20415;-75
2022/06/16 13:17:07;;;;;;;2.08;1.63;;;;;;;;;;5065448;28;20814;-77
2022/06/16 13:19:35;;;;;;;1.70;1.60;;;;;;;;;;5067821;28;20176;-76
2022/06/16 13:22:03;;;;;;;3.22;1.60;;;;;;;;;;5065586;28;20481;-76
2022/06/16 13:24:38;;;;;;;2.97;1.73;;;;;;;;;;5067685;28;20048;-75
2022/06/16 13:27:08;;;;;;;2.17;1.60;;;;;;;;;;5061592;28;20076;-75
2022/06/16 13:29:41;;;;;;;1.70;1.60;;;;;;;;;;5068432;28;21329;-75
2022/06/16 13:32:20;;;;;;;3.58;1.70;;;;;;;;;;5067327;28;20028;-75
2022/06/16 13:34:54;;;;;;;1.85;1.70;;;;;;;;;;5064672;28;20064;-75
2022/06/16 13:37:27;;;;;;;1.77;1.63;;;;;;;;;;5064488;28;20056;-75
2022/06/16 13:39:55;;;;;;;3.30;1.60;;;;;;;;;;5065900;28;20432;-76
2022/06/16 13:42:40;;;;;;;2.85;1.77;;;;;;;;;;5065448;28;20873;-75
2022/06/16 13:45:12;;;;;;;2.03;1.70;;;;;;;;;;5062883;28;20033;-76
2022/06/16 13:47:58;;;;;;;1.77;1.40;;;;;;;;;;5063880;28;20494;-76
2022/06/16 13:50:41;;;;;;;1.77;1.67;;;;;;;;;;5063608;28;20494;-75
2022/06/16 13:53:08;;;;;;;1.83;1.63;;;;;;;;;;5065220;28;20021;-76
2022/06/16 13:55:35;;;;;;;3.00;2.17;;;;;;;;;;5078736;28;20024;-76
2022/06/16 13:58:20;;;;;;;2.67;1.67;;;;;;;;;;5064218;28;20386;-77
2022/06/16 14:01:01;;;;;;;1.63;1.50;;;;;;;;;;5065456;28;20024;-76
2022/06/16 14:03:28;;;;;;;1.98;1.55;;;;;;;;;;5061553;28;20563;-75
2022/06/16 14:05:56;;;;;;;3.05;1.60;;;;;;;;;;5065387;28;20067;-76
2022/06/16 14:08:22;;;;;;;2.65;1.60;;;;;;;;;;5062385;28;20482;-75
2022/06/16 14:10:50;;;;;;;2.72;1.92;;;;;;;;;;5066300;28;20040;-78
2022/06/16 14:13:20;;;;;;;2.63;1.67;;;;;;;;;;5063794;28;20073;-77
2022/06/16 14:15:49;;;;;;;1.60;1.50;;;;;;;;;;5064771;28;20047;-78
2022/06/16 14:18:15;;;;;;;2.15;1.50;;;;;;;;;;5069180;28;20497;-78
2022/06/16 14:20:42;;;;;;;2.38;1.60;;;;;;;;;;5068311;28;20068;-77
2022/06/16 14:23:35;;;;;;;2.55;1.67;;;;;;;;;;5066806;28;20531;-77
2022/06/16 14:26:03;;;;;;;1.60;1.50;;;;;;;;;;5062223;28;20031;-75
2022/06/16 14:28:35;;;;;;;2.88;1.60;;;;;;;;;;5063581;28;20296;-75
2022/06/16 14:31:10;;;;;;;1.70;1.52;;;;;;;;;;5065968;28;20482;-77
2022/06/16 14:33:46;;;;;;;3.78;1.73;;;;;;;;;;5065376;28;20028;-78
2022/06/16 14:36:15;;;;;;;2.55;2.35;;;;;;;;;;5066649;28;20341;-75
2022/06/16 14:38:49;;;;;;;3.03;1.70;;;;;;;;;;5064518;28;20131;-75
2022/06/16 14:41:30;;;;;;;3.47;1.52;;;;;;;;;;5060846;28;21049;-74
2022/06/16 14:44:08;;;;;;;1.70;1.55;;;;;;;;;;5062200;28;20048;-75
2022/06/16 14:46:37;;;;;;;1.50;1.40;;;;;;;;;;5060258;28;20044;-75
2022/06/16 14:49:07;;;;;;;1.67;1.58;;;;;;;;;;5066500;28;20036;-76
2022/06/16 14:51:35;;;;;;;2.33;1.63;;;;;;;;;;5062244;28;20060;-75
2022/06/16 14:54:04;;;;;;;2.08;1.60;;;;;;;;;;5065108;28;20349;-76
2022/06/16 14:56:38;;;;;;;1.92;1.80;;;;;;;;;;5063688;28;20455;-76
2022/06/16 14:59:08;;;;;;;11.55;1.98;;;;;;;;;;5066761;28;20024;-77
2022/06/16 15:01:35;;;;;;;2.83;1.50;;;;;;;;;;5063264;28;20490;-77
2022/06/16 15:04:04;;;;;;;2.28;1.40;;;;;;;;;;5065920;28;20310;-77
2022/06/16 15:06:31;;;;;;;2.15;1.40;;;;;;;;;;5065430;28;20355;-76
2022/06/16 15:08:59;;;;;;;2.92;1.75;;;;;;;;;;5063417;28;20160;-74
2022/06/16 15:11:28;;;;;;;1.23;1.23;;;;;;;;;;5055173;28;20098;-75
2022/06/16 15:13:57;;;;;;;2.15;1.52;;;;;;;;;;5056845;28;20036;-78
2022/06/16 15:19:13;;;;;;;1.55;1.40;;;;;;;;;;5060393;28;20482;-75
2022/06/16 15:21:42;;;;;;;1.83;1.70;;;;;;;;;;5062651;28;20506;-76
2022/06/16 15:24:08;;;;;;;2.58;1.50;;;;;;;;;;5061402;28;20021;-76
2022/06/16 15:26:34;;;;;;;2.17;1.80;;;;;;;;;;5060531;28;20475;-76
2022/06/16 15:29:05;;;;;;;2.60;1.70;;;;;;;;;;5059546;28;20067;-77
2022/06/16 15:31:36;;;;;;;4.65;2.25;;;;;;;;;;5060481;28;20020;-77
2022/06/16 15:36:51;;;;;;;4.13;2.40;;;;;;;;;;5061842;28;20410;-82
2022/06/16 15:39:19;;;;;;;2.85;1.85;;;;;;;;;;5058351;28;20363;-76
2022/06/16 15:41:47;;;;;;;4.65;1.63;;;;;;;;;;5059484;28;20029;-77